New Braunfels, Texas
Current Conditions -  °F | °C
As of 6:25 AM on Thursday 29 Jan 2015 (Local Time) from KBAZ Reporting Station
Moderate Fog Moderate Fog  
Wind Chill: 56°   Ceiling: 300
Heat Index: 56°   Visibility: 0.25mi
Dew Point: 54°   Wind: 0mph
Humidity: 93%   Direction: NA
Pressure: 30.15"   Gusts: NA
Location:  29.7°N, 98.12°W
Report Text: KBAZ 291225Z AUTO 00000KT 1/4SM FG VV003 13/12 A3015 RMK AO2 T01330122
Loading
Personal Weather Stations






























Interactive Weather Map New forecast layout! Learn more

10-Day Weather Forecast

Advertisements
Track Severe Weather on mobile